SKUC/AUC METAR and TAF weather

Enter ICAO airport designator
Station Type Date Time Source
SKUC METAR 2018/12/12 11:00 UTC NOAA

SKUC 121100Z 33003KT 9999 BKN020 23/23 A2996


Station Type Date Time Source
SKUC Decoded METAR 2018/12/12 11:00 UTC NOAA

Arauca / Santiago Perez, Colombia (SKUC) 07-04N 070-44W 128M
Dec 12, 2018 - 06:00 AM EST / 2018.12.12 1100 UTC
Wind: from the NNW (330 degrees) at 3 MPH (3 KT):0
Visibility: greater than 7 mile(s):0
Sky conditions: mostly cloudy
Temperature: 73 F (23 C)
Dew Point: 73 F (23 C)
Relative Humidity: 100%
Pressure (altimeter): 29.96 in. Hg (1014 hPa)
ob: SKUC 121100Z 33003KT 9999 BKN020 23/23 A2996
cycle: 11

Station Type Date Time Source
SKUC TAF UTC NOAA

Error!


Example: see airport list